sensor_id;sensor_type;location;lat;lon;timestamp;pressure;altitude;pressure_sealevel;temperature;humidity
20368;BME280;10343;52.402;9.796;2023-03-17T00:01:58;100574.44;;;13.67;36.42
20368;BME280;10343;52.402;9.796;2023-03-17T00:04:26;100576.41;;;13.62;36.24
20368;BME280;10343;52.402;9.796;2023-03-17T00:06:55;100575.47;;;13.39;36.50
20368;BME280;10343;52.402;9.796;2023-03-17T00:09:23;100575.34;;;13.68;36.22
20368;BME280;10343;52.402;9.796;2023-03-17T00:11:53;100576.41;;;13.38;37.07
20368;BME280;10343;52.402;9.796;2023-03-17T00:14:21;100569.47;;;13.58;36.45
20368;BME280;10343;52.402;9.796;2023-03-17T00:16:50;100564.59;;;13.46;36.67
20368;BME280;10343;52.402;9.796;2023-03-17T00:19:22;100575.59;;;13.36;37.09
20368;BME280;10343;52.402;9.796;2023-03-17T00:21:53;100557.31;;;13.51;36.75
20368;BME280;10343;52.402;9.796;2023-03-17T00:24:21;100576.59;;;13.81;36.16
20368;BME280;10343;52.402;9.796;2023-03-17T00:26:50;100575.44;;;13.41;36.75
20368;BME280;10343;52.402;9.796;2023-03-17T00:29:20;100567.44;;;13.65;36.36
20368;BME280;10343;52.402;9.796;2023-03-17T00:31:48;100574.38;;;13.92;36.28
20368;BME280;10343;52.402;9.796;2023-03-17T00:34:21;100569.09;;;13.91;35.90
20368;BME280;10343;52.402;9.796;2023-03-17T00:36:49;100575.38;;;13.42;36.97
20368;BME280;10343;52.402;9.796;2023-03-17T00:39:21;100561.00;;;14.60;35.34
20368;BME280;10343;52.402;9.796;2023-03-17T00:41:53;100569.78;;;13.96;36.13
20368;BME280;10343;52.402;9.796;2023-03-17T00:44:22;100569.81;;;13.49;36.79
20368;BME280;10343;52.402;9.796;2023-03-17T00:46:52;100576.22;;;13.18;36.96
20368;BME280;10343;52.402;9.796;2023-03-17T00:49:21;100568.94;;;13.23;37.34
20368;BME280;10343;52.402;9.796;2023-03-17T00:51:51;100568.94;;;13.23;37.37
20368;BME280;10343;52.402;9.796;2023-03-17T00:54:20;100561.66;;;13.28;37.43
20368;BME280;10343;52.402;9.796;2023-03-17T00:56:50;100555.34;;;13.05;37.59
20368;BME280;10343;52.402;9.796;2023-03-17T00:59:24;100557.22;;;13.03;37.95
20368;BME280;10343;52.402;9.796;2023-03-17T01:01:53;100553.19;;;12.91;38.14
20368;BME280;10343;52.402;9.796;2023-03-17T01:04:22;100562.47;;;13.30;37.08
20368;BME280;10343;52.402;9.796;2023-03-17T01:06:51;100553.09;;;13.20;38.03
20368;BME280;10343;52.402;9.796;2023-03-17T01:09:22;100557.63;;;13.41;37.31
20368;BME280;10343;52.402;9.796;2023-03-17T01:11:52;100560.22;;;13.68;37.00
20368;BME280;10343;52.402;9.796;2023-03-17T01:14:21;100559.41;;;14.34;35.65
20368;BME280;10343;52.402;9.796;2023-03-17T01:16:52;100566.59;;;13.40;36.79
20368;BME280;10343;52.402;9.796;2023-03-17T01:19:21;100570.63;;;13.51;37.01
20368;BME280;10343;52.402;9.796;2023-03-17T01:21:49;100571.66;;;13.94;36.29
20368;BME280;10343;52.402;9.796;2023-03-17T01:24:18;100576.66;;;14.48;35.40
20368;BME280;10343;52.402;9.796;2023-03-17T01:26:46;100566.53;;;14.12;35.70
20368;BME280;10343;52.402;9.796;2023-03-17T01:29:14;100567.75;;;14.69;35.43
20368;BME280;10343;52.402;9.796;2023-03-17T01:31:43;100576.78;;;13.53;36.44
20368;BME280;10343;52.402;9.796;2023-03-17T01:34:13;100578.28;;;13.84;36.41
20368;BME280;10343;52.402;9.796;2023-03-17T01:36:42;100579.88;;;13.88;36.48
20368;BME280;10343;52.402;9.796;2023-03-17T01:39:10;100574.34;;;13.94;36.36
20368;BME280;10343;52.402;9.796;2023-03-17T01:41:38;100564.44;;;13.50;36.89
20368;BME280;10343;52.402;9.796;2023-03-17T01:44:13;100559.34;;;13.68;36.60
20368;BME280;10343;52.402;9.796;2023-03-17T01:46:42;100562.22;;;13.13;37.90
20368;BME280;10343;52.402;9.796;2023-03-17T01:49:16;100552.09;;;13.48;37.72
20368;BME280;10343;52.402;9.796;2023-03-17T01:51:51;100546.25;;;13.13;37.89
20368;BME280;10343;52.402;9.796;2023-03-17T01:54:24;100533.22;;;13.54;37.80
20368;BME280;10343;52.402;9.796;2023-03-17T01:56:56;100532.63;;;13.46;37.81
20368;BME280;10343;52.402;9.796;2023-03-17T01:59:32;100529.34;;;14.08;36.55
20368;BME280;10343;52.402;9.796;2023-03-17T02:02:03;100524.28;;;13.31;37.90
20368;BME280;10343;52.402;9.796;2023-03-17T02:04:36;100521.47;;;13.11;38.08
20368;BME280;10343;52.402;9.796;2023-03-17T02:07:06;100514.63;;;12.78;38.54
20368;BME280;10343;52.402;9.796;2023-03-17T02:09:40;100525.88;;;13.12;38.26
20368;BME280;10343;52.402;9.796;2023-03-17T02:12:09;100522.09;;;13.90;37.09
20368;BME280;10343;52.402;9.796;2023-03-17T02:14:37;100520.69;;;13.80;36.78
20368;BME280;10343;52.402;9.796;2023-03-17T02:17:06;100521.63;;;13.55;37.04
20368;BME280;10343;52.402;9.796;2023-03-17T02:19:36;100522.63;;;13.52;37.42
20368;BME280;10343;52.402;9.796;2023-03-17T02:22:06;100526.88;;;14.04;36.65
20368;BME280;10343;52.402;9.796;2023-03-17T02:24:37;100527.53;;;14.31;36.10
20368;BME280;10343;52.402;9.796;2023-03-17T02:27:10;100529.59;;;13.79;36.83
20368;BME280;10343;52.402;9.796;2023-03-17T02:29:39;100527.41;;;14.34;35.74
20368;BME280;10343;52.402;9.796;2023-03-17T02:32:07;100534.91;;;14.47;36.17
20368;BME280;10343;52.402;9.796;2023-03-17T02:34:36;100531.09;;;14.74;35.57
20368;BME280;10343;52.402;9.796;2023-03-17T02:37:06;100531.00;;;14.33;36.07
20368;BME280;10343;52.402;9.796;2023-03-17T02:39:35;100538.41;;;14.69;35.12
20368;BME280;10343;52.402;9.796;2023-03-17T02:42:04;100550.28;;;13.48;37.22
20368;BME280;10343;52.402;9.796;2023-03-17T02:44:33;100545.69;;;13.99;36.76
20368;BME280;10343;52.402;9.796;2023-03-17T02:47:01;100542.00;;;13.80;36.90
20368;BME280;10343;52.402;9.796;2023-03-17T02:49:30;100546.63;;;14.20;36.60
20368;BME280;10343;52.402;9.796;2023-03-17T02:51:59;100540.84;;;14.09;36.36
20368;BME280;10343;52.402;9.796;2023-03-17T02:54:29;100543.44;;;12.92;38.40
20368;BME280;10343;52.402;9.796;2023-03-17T02:56:57;100548.28;;;12.54;39.26
20368;BME280;10343;52.402;9.796;2023-03-17T02:59:25;100532.50;;;12.74;39.00
20368;BME280;10343;52.402;9.796;2023-03-17T03:01:54;100522.22;;;12.10;40.22
20368;BME280;10343;52.402;9.796;2023-03-17T03:04:22;100513.41;;;12.36;39.77
20368;BME280;10343;52.402;9.796;2023-03-17T03:06:51;100506.28;;;11.82;41.07
20368;BME280;10343;52.402;9.796;2023-03-17T03:09:20;100506.81;;;12.73;39.24
20368;BME280;10343;52.402;9.796;2023-03-17T03:11:49;100522.31;;;13.13;38.54
20368;BME280;10343;52.402;9.796;2023-03-17T03:14:17;100516.84;;;13.87;37.47
20368;BME280;10343;52.402;9.796;2023-03-17T03:16:46;100516.13;;;13.36;38.30
20368;BME280;10343;52.402;9.796;2023-03-17T03:19:14;100516.22;;;12.84;38.80
20368;BME280;10343;52.402;9.796;2023-03-17T03:21:42;100515.41;;;12.82;38.82
20368;BME280;10343;52.402;9.796;2023-03-17T03:24:10;100513.25;;;13.66;37.76
20368;BME280;10343;52.402;9.796;2023-03-17T03:26:38;100517.09;;;13.33;38.11
20368;BME280;10343;52.402;9.796;2023-03-17T03:29:08;100516.38;;;13.53;37.70
20368;BME280;10343;52.402;9.796;2023-03-17T03:31:39;100529.72;;;13.28;37.97
20368;BME280;10343;52.402;9.796;2023-03-17T03:34:08;100514.03;;;14.14;36.82
20368;BME280;10343;52.402;9.796;2023-03-17T03:36:37;100514.03;;;14.14;36.88
20368;BME280;10343;52.402;9.796;2023-03-17T03:39:06;100510.16;;;13.76;37.19
20368;BME280;10343;52.402;9.796;2023-03-17T03:41:35;100511.91;;;13.78;36.83
20368;BME280;10343;52.402;9.796;2023-03-17T03:44:04;100517.59;;;13.68;37.77
20368;BME280;10343;52.402;9.796;2023-03-17T03:46:33;100524.59;;;13.22;38.33
20368;BME280;10343;52.402;9.796;2023-03-17T03:49:02;100519.97;;;13.03;38.81
20368;BME280;10343;52.402;9.796;2023-03-17T03:51:30;100513.31;;;13.40;38.15
20368;BME280;10343;52.402;9.796;2023-03-17T03:53:58;100513.75;;;13.28;37.93
20368;BME280;10343;52.402;9.796;2023-03-17T03:56:26;100501.47;;;13.71;37.53
20368;BME280;10343;52.402;9.796;2023-03-17T03:58:54;100486.22;;;13.53;37.64
20368;BME280;10343;52.402;9.796;2023-03-17T04:01:23;100473.22;;;13.89;37.59
20368;BME280;10343;52.402;9.796;2023-03-17T04:03:52;100490.69;;;13.27;38.34
20368;BME280;10343;52.402;9.796;2023-03-17T04:06:20;100467.44;;;13.56;37.99
20368;BME280;10343;52.402;9.796;2023-03-17T04:08:48;100470.06;;;12.34;40.17
20368;BME280;10343;52.402;9.796;2023-03-17T04:11:16;100458.06;;;12.48;39.60
20368;BME280;10343;52.402;9.796;2023-03-17T04:13:44;100465.69;;;13.31;38.44
20368;BME280;10343;52.402;9.796;2023-03-17T04:16:12;100467.72;;;13.24;38.48
20368;BME280;10343;52.402;9.796;2023-03-17T04:18:41;100452.13;;;13.39;38.22
20368;BME280;10343;52.402;9.796;2023-03-17T04:21:10;100457.50;;;13.61;37.47
20368;BME280;10343;52.402;9.796;2023-03-17T04:23:39;100457.38;;;13.86;37.41
20368;BME280;10343;52.402;9.796;2023-03-17T04:26:07;100450.72;;;13.74;37.64
20368;BME280;10343;52.402;9.796;2023-03-17T04:28:36;100468.84;;;13.42;38.30
20368;BME280;10343;52.402;9.796;2023-03-17T04:31:04;100453.56;;;13.24;38.13
20368;BME280;10343;52.402;9.796;2023-03-17T04:33:36;100458.81;;;12.77;38.92
20368;BME280;10343;52.402;9.796;2023-03-17T04:36:06;100446.34;;;13.51;38.38
20368;BME280;10343;52.402;9.796;2023-03-17T04:38:36;100455.63;;;13.16;38.18
20368;BME280;10343;52.402;9.796;2023-03-17T04:41:05;100457.13;;;13.23;37.99
20368;BME280;10343;52.402;9.796;2023-03-17T04:43:33;100455.50;;;13.66;37.58
20368;BME280;10343;52.402;9.796;2023-03-17T04:46:01;100452.22;;;13.36;37.92
20368;BME280;10343;52.402;9.796;2023-03-17T04:48:32;100455.78;;;13.36;37.59
20368;BME280;10343;52.402;9.796;2023-03-17T04:51:03;100452.03;;;14.08;36.84
20368;BME280;10343;52.402;9.796;2023-03-17T04:53:32;100459.84;;;13.91;36.65
20368;BME280;10343;52.402;9.796;2023-03-17T04:56:04;100460.78;;;13.44;37.37
20368;BME280;10343;52.402;9.796;2023-03-17T04:58:33;100478.47;;;12.98;38.20
20368;BME280;10343;52.402;9.796;2023-03-17T05:01:03;100461.91;;;13.38;37.52
20368;BME280;10343;52.402;9.796;2023-03-17T05:03:33;100460.97;;;13.16;37.89
20368;BME280;10343;52.402;9.796;2023-03-17T05:06:07;100465.88;;;12.78;38.57
20368;BME280;10343;52.402;9.796;2023-03-17T05:08:48;100452.53;;;12.54;39.25
20368;BME280;10343;52.402;9.796;2023-03-17T05:11:18;100453.44;;;12.53;38.79
20368;BME280;10343;52.402;9.796;2023-03-17T05:13:50;100458.44;;;13.36;38.20
20368;BME280;10343;52.402;9.796;2023-03-17T05:16:18;100456.69;;;12.86;38.31
20368;BME280;10343;52.402;9.796;2023-03-17T05:18:47;100460.19;;;13.12;37.80
20368;BME280;10343;52.402;9.796;2023-03-17T05:21:15;100455.28;;;13.25;37.61
20368;BME280;10343;52.402;9.796;2023-03-17T05:23:45;100457.59;;;13.11;37.97
20368;BME280;10343;52.402;9.796;2023-03-17T05:26:13;100459.56;;;13.05;37.98
20368;BME280;10343;52.402;9.796;2023-03-17T05:28:43;100468.34;;;12.84;38.60
20368;BME280;10343;52.402;9.796;2023-03-17T05:31:12;100464.84;;;13.31;38.13
20368;BME280;10343;52.402;9.796;2023-03-17T05:33:49;100455.56;;;12.68;38.60
20368;BME280;10343;52.402;9.796;2023-03-17T05:36:17;100439.59;;;12.94;38.35
20368;BME280;10343;52.402;9.796;2023-03-17T05:38:50;100425.28;;;12.72;39.04
20368;BME280;10343;52.402;9.796;2023-03-17T05:41:18;100439.53;;;13.19;38.20
20368;BME280;10343;52.402;9.796;2023-03-17T05:43:48;100444.09;;;12.91;38.24
20368;BME280;10343;52.402;9.796;2023-03-17T05:46:16;100433.16;;;12.76;38.81
20368;BME280;10343;52.402;9.796;2023-03-17T05:48:46;100432.31;;;12.50;39.31
20368;BME280;10343;52.402;9.796;2023-03-17T05:51:14;100441.34;;;12.69;39.13
20368;BME280;10343;52.402;9.796;2023-03-17T05:53:42;100427.28;;;13.15;38.13
20368;BME280;10343;52.402;9.796;2023-03-17T05:56:11;100427.88;;;12.74;38.85
20368;BME280;10343;52.402;9.796;2023-03-17T05:58:44;100438.19;;;13.08;38.42
20368;BME280;10343;52.402;9.796;2023-03-17T06:01:14;100422.19;;;14.41;36.59
20368;BME280;10343;52.402;9.796;2023-03-17T06:03:41;100411.25;;;13.62;37.38
20368;BME280;10343;52.402;9.796;2023-03-17T06:06:13;100424.50;;;13.18;37.98
20368;BME280;10343;52.402;9.796;2023-03-17T06:08:41;100427.50;;;13.32;37.77
20368;BME280;10343;52.402;9.796;2023-03-17T06:11:12;100427.22;;;13.40;38.14
20368;BME280;10343;52.402;9.796;2023-03-17T06:13:41;100434.75;;;13.05;38.45
20368;BME280;10343;52.402;9.796;2023-03-17T06:16:11;100432.28;;;13.70;37.43
20368;BME280;10343;52.402;9.796;2023-03-17T06:18:44;100436.75;;;12.98;38.54
20368;BME280;10343;52.402;9.796;2023-03-17T06:21:13;100442.59;;;13.08;38.40
20368;BME280;10343;52.402;9.796;2023-03-17T06:23:41;100436.16;;;14.05;36.68
20368;BME280;10343;52.402;9.796;2023-03-17T06:26:09;100433.94;;;13.72;36.93
20368;BME280;10343;52.402;9.796;2023-03-17T06:28:38;100441.81;;;13.75;37.28
20368;BME280;10343;52.402;9.796;2023-03-17T06:31:06;100428.28;;;13.58;37.19
20368;BME280;10343;52.402;9.796;2023-03-17T06:33:34;100430.97;;;14.02;36.32
20368;BME280;10343;52.402;9.796;2023-03-17T06:36:08;100423.72;;;13.62;37.26
20368;BME280;10343;52.402;9.796;2023-03-17T06:38:41;100423.00;;;13.80;36.83
20368;BME280;10343;52.402;9.796;2023-03-17T06:41:09;100428.06;;;13.64;37.27
20368;BME280;10343;52.402;9.796;2023-03-17T06:43:37;100427.28;;;13.15;38.11
20368;BME280;10343;52.402;9.796;2023-03-17T06:46:05;100420.84;;;13.88;36.75
20368;BME280;10343;52.402;9.796;2023-03-17T06:48:33;100430.59;;;14.32;35.89
20368;BME280;10343;52.402;9.796;2023-03-17T06:51:00;100433.31;;;13.66;36.56
20368;BME280;10343;52.402;9.796;2023-03-17T06:53:30;100441.19;;;14.34;36.12
20368;BME280;10343;52.402;9.796;2023-03-17T06:55:58;100447.03;;;14.64;35.26
20368;BME280;10343;52.402;9.796;2023-03-17T06:58:26;100437.94;;;14.48;35.59
20368;BME280;10343;52.402;9.796;2023-03-17T07:00:54;100440.47;;;13.65;36.22
20368;BME280;10343;52.402;9.796;2023-03-17T07:03:22;100431.84;;;13.58;36.81
20368;BME280;10343;52.402;9.796;2023-03-17T07:05:51;100425.94;;;14.78;35.23
20368;BME280;10343;52.402;9.796;2023-03-17T07:08:19;100429.34;;;13.54;37.11
20368;BME280;10343;52.402;9.796;2023-03-17T07:10:48;100419.66;;;14.59;35.49
20368;BME280;10343;52.402;9.796;2023-03-17T07:13:19;100426.28;;;14.07;36.36
20368;BME280;10343;52.402;9.796;2023-03-17T07:15:48;100422.75;;;14.70;35.63
20368;BME280;10343;52.402;9.796;2023-03-17T07:18:16;100430.19;;;14.62;35.38
20368;BME280;10343;52.402;9.796;2023-03-17T07:20:44;100429.41;;;14.81;35.00
20368;BME280;10343;52.402;9.796;2023-03-17T07:23:14;100433.41;;;14.50;35.52
20368;BME280;10343;52.402;9.796;2023-03-17T07:25:42;100420.75;;;14.34;35.42
20368;BME280;10343;52.402;9.796;2023-03-17T07:28:14;100406.88;;;15.26;34.88
20368;BME280;10343;52.402;9.796;2023-03-17T07:30:42;100413.38;;;14.81;35.17
20368;BME280;10343;52.402;9.796;2023-03-17T07:33:12;100409.22;;;14.94;35.15
20368;BME280;10343;52.402;9.796;2023-03-17T07:35:40;100405.22;;;15.04;34.91
20368;BME280;10343;52.402;9.796;2023-03-17T07:38:09;100411.03;;;16.06;33.40
20368;BME280;10343;52.402;9.796;2023-03-17T07:40:37;100412.69;;;15.53;34.07
20368;BME280;10343;52.402;9.796;2023-03-17T07:43:05;100408.97;;;16.11;33.72
20368;BME280;10343;52.402;9.796;2023-03-17T07:45:35;100401.38;;;16.90;32.15
20368;BME280;10343;52.402;9.796;2023-03-17T07:48:04;100411.28;;;16.19;32.80
20368;BME280;10343;52.402;9.796;2023-03-17T07:50:33;100404.44;;;16.13;33.04
20368;BME280;10343;52.402;9.796;2023-03-17T07:53:01;100406.75;;;16.72;32.42
20368;BME280;10343;52.402;9.796;2023-03-17T07:55:30;100414.13;;;16.85;32.01
20368;BME280;10343;52.402;9.796;2023-03-17T07:57:59;100403.38;;;16.69;32.29
20368;BME280;10343;52.402;9.796;2023-03-17T08:00:27;100395.38;;;17.34;31.29
20368;BME280;10343;52.402;9.796;2023-03-17T08:03:00;100393.66;;;17.01;31.27
20368;BME280;10343;52.402;9.796;2023-03-17T08:05:36;100381.59;;;17.88;30.77
20368;BME280;10343;52.402;9.796;2023-03-17T08:08:04;100384.59;;;17.20;31.28
20368;BME280;10343;52.402;9.796;2023-03-17T08:10:32;100385.34;;;17.06;31.49
20368;BME280;10343;52.402;9.796;2023-03-17T08:13:01;100368.34;;;17.39;31.13
20368;BME280;10343;52.402;9.796;2023-03-17T08:15:29;100375.22;;;16.44;32.22
20368;BME280;10343;52.402;9.796;2023-03-17T08:17:57;100373.59;;;17.08;31.52
20368;BME280;10343;52.402;9.796;2023-03-17T08:20:26;100375.34;;;17.09;31.71
20368;BME280;10343;52.402;9.796;2023-03-17T08:22:55;100378.94;;;15.89;33.13
20368;BME280;10343;52.402;9.796;2023-03-17T08:25:23;100370.88;;;16.59;32.62
20368;BME280;10343;52.402;9.796;2023-03-17T08:27:51;100381.56;;;16.76;32.26
20368;BME280;10343;52.402;9.796;2023-03-17T08:30:20;100387.13;;;16.56;32.41
20368;BME280;10343;52.402;9.796;2023-03-17T08:32:48;100394.50;;;16.16;32.75
20368;BME280;10343;52.402;9.796;2023-03-17T08:35:16;100395.19;;;16.54;32.33
20368;BME280;10343;52.402;9.796;2023-03-17T08:37:46;100387.28;;;15.83;33.32
20368;BME280;10343;52.402;9.796;2023-03-17T08:40:16;100390.03;;;15.99;33.44
20368;BME280;10343;52.402;9.796;2023-03-17T08:42:46;100387.59;;;16.11;33.09
20368;BME280;10343;52.402;9.796;2023-03-17T08:45:15;100397.53;;;16.27;33.04
20368;BME280;10343;52.402;9.796;2023-03-17T08:47:45;100398.84;;;16.53;33.15
20368;BME280;10343;52.402;9.796;2023-03-17T08:50:17;100380.00;;;17.22;31.87
20368;BME280;10343;52.402;9.796;2023-03-17T08:52:47;100384.16;;;17.11;32.05
20368;BME280;10343;52.402;9.796;2023-03-17T08:55:15;100389.84;;;17.21;31.97
20368;BME280;10343;52.402;9.796;2023-03-17T08:57:44;100381.13;;;16.84;32.45
20368;BME280;10343;52.402;9.796;2023-03-17T09:00:13;100380.19;;;16.52;32.98
20368;BME280;10343;52.402;9.796;2023-03-17T09:02:47;100371.53;;;17.45;32.24
20368;BME280;10343;52.402;9.796;2023-03-17T09:05:15;100374.28;;;17.12;32.20
20368;BME280;10343;52.402;9.796;2023-03-17T09:07:43;100370.00;;;17.09;32.14
20368;BME280;10343;52.402;9.796;2023-03-17T09:10:13;100372.47;;;16.96;32.34
20368;BME280;10343;52.402;9.796;2023-03-17T09:12:42;100362.34;;;17.65;31.64
20368;BME280;10343;52.402;9.796;2023-03-17T09:15:10;100368.22;;;18.33;30.61
20368;BME280;10343;52.402;9.796;2023-03-17T09:17:38;100368.59;;;19.00;30.21
20368;BME280;10343;52.402;9.796;2023-03-17T09:20:08;100367.63;;;18.13;30.78
20368;BME280;10343;52.402;9.796;2023-03-17T09:22:37;100362.16;;;18.15;30.67
20368;BME280;10343;52.402;9.796;2023-03-17T09:25:05;100348.63;;;19.05;29.88
20368;BME280;10343;52.402;9.796;2023-03-17T09:27:34;100348.94;;;18.12;30.77
20368;BME280;10343;52.402;9.796;2023-03-17T09:30:03;100350.97;;;18.23;30.47
20368;BME280;10343;52.402;9.796;2023-03-17T09:32:31;100352.28;;;17.39;31.13
20368;BME280;10343;52.402;9.796;2023-03-17T09:34:59;100351.91;;;17.45;31.18
20368;BME280;10343;52.402;9.796;2023-03-17T09:37:27;100353.81;;;18.79;29.66
20368;BME280;10343;52.402;9.796;2023-03-17T09:39:55;100357.50;;;18.33;30.21
20368;BME280;10343;52.402;9.796;2023-03-17T09:42:37;100354.25;;;18.85;29.58
20368;BME280;10343;52.402;9.796;2023-03-17T09:45:14;100354.91;;;18.17;30.41
20368;BME280;10343;52.402;9.796;2023-03-17T09:50:51;100367.28;;;18.48;29.76
20368;BME280;10343;52.402;9.796;2023-03-17T09:53:22;100357.44;;;18.04;31.33
20368;BME280;10343;52.402;9.796;2023-03-17T09:55:56;100359.50;;;18.89;29.07
20368;BME280;10343;52.402;9.796;2023-03-17T09:58:29;100364.13;;;19.56;28.60
20368;BME280;10343;52.402;9.796;2023-03-17T10:00:58;100356.56;;;19.90;27.76
20368;BME280;10343;52.402;9.796;2023-03-17T10:03:31;100369.28;;;20.13;27.67
20368;BME280;10343;52.402;9.796;2023-03-17T10:06:14;100378.94;;;20.30;28.44
20368;BME280;10343;52.402;9.796;2023-03-17T10:08:50;100371.25;;;20.37;27.33
20368;BME280;10343;52.402;9.796;2023-03-17T10:11:28;100372.69;;;20.43;27.44
20368;BME280;10343;52.402;9.796;2023-03-17T10:14:03;100376.41;;;20.01;27.87
20368;BME280;10343;52.402;9.796;2023-03-17T10:16:44;100359.66;;;20.75;27.18
20368;BME280;10343;52.402;9.796;2023-03-17T10:19:21;100361.41;;;21.26;27.00
20368;BME280;10343;52.402;9.796;2023-03-17T10:21:55;100352.13;;;21.30;26.56
20368;BME280;10343;52.402;9.796;2023-03-17T10:24:25;100360.13;;;20.69;27.52
20368;BME280;10343;52.402;9.796;2023-03-17T10:26:56;100371.06;;;20.40;28.11
20368;BME280;10343;52.402;9.796;2023-03-17T10:29:27;100365.88;;;20.37;27.61
20368;BME280;10343;52.402;9.796;2023-03-17T10:31:57;100357.56;;;18.91;29.32
20368;BME280;10343;52.402;9.796;2023-03-17T10:34:27;100352.03;;;19.35;29.06
20368;BME280;10343;52.402;9.796;2023-03-17T10:36:59;100355.41;;;19.79;28.25
20368;BME280;10343;52.402;9.796;2023-03-17T10:39:28;100353.72;;;18.95;29.42
20368;BME280;10343;52.402;9.796;2023-03-17T10:42:06;100362.22;;;21.02;27.37
20368;BME280;10343;52.402;9.796;2023-03-17T10:44:43;100355.50;;;20.05;28.19
20368;BME280;10343;52.402;9.796;2023-03-17T10:47:29;100361.34;;;20.63;27.65
20368;BME280;10343;52.402;9.796;2023-03-17T10:50:02;100358.78;;;20.62;27.53
20368;BME280;10343;52.402;9.796;2023-03-17T10:52:40;100356.38;;;21.59;26.75
20368;BME280;10343;52.402;9.796;2023-03-17T10:55:11;100361.72;;;20.72;27.27
20368;BME280;10343;52.402;9.796;2023-03-17T10:57:49;100363.78;;;20.68;27.38
20368;BME280;10343;52.402;9.796;2023-03-17T11:00:20;100367.84;;;20.86;27.56
20368;BME280;10343;52.402;9.796;2023-03-17T11:02:52;100358.16;;;19.65;28.94
20368;BME280;10343;52.402;9.796;2023-03-17T11:05:24;100369.59;;;20.75;27.92
20368;BME280;10343;52.402;9.796;2023-03-17T11:08:05;100370.72;;;20.96;27.55
20368;BME280;10343;52.402;9.796;2023-03-17T11:10:35;100361.53;;;21.62;26.84
20368;BME280;10343;52.402;9.796;2023-03-17T11:13:04;100361.56;;;21.12;27.30
20368;BME280;10343;52.402;9.796;2023-03-17T11:15:35;100355.94;;;21.15;27.26
20368;BME280;10343;52.402;9.796;2023-03-17T11:18:12;100357.19;;;20.98;27.49
20368;BME280;10343;52.402;9.796;2023-03-17T11:20:49;100342.31;;;21.78;26.39
20368;BME280;10343;52.402;9.796;2023-03-17T11:23:35;100349.13;;;22.30;26.07
20368;BME280;10343;52.402;9.796;2023-03-17T11:26:15;100354.88;;;21.04;27.04
20368;BME280;10343;52.402;9.796;2023-03-17T11:28:56;100355.16;;;21.63;26.63
20368;BME280;10343;52.402;9.796;2023-03-17T11:31:32;100352.16;;;21.17;27.32
20368;BME280;10343;52.402;9.796;2023-03-17T11:34:06;100337.91;;;22.59;26.26
20368;BME280;10343;52.402;9.796;2023-03-17T11:36:43;100332.97;;;21.95;26.49
20368;BME280;10343;52.402;9.796;2023-03-17T11:39:16;100328.88;;;22.25;26.59
20368;BME280;10343;52.402;9.796;2023-03-17T11:41:58;100326.22;;;21.03;27.89
20368;BME280;10343;52.402;9.796;2023-03-17T11:44:44;100316.59;;;22.20;26.72
20368;BME280;10343;52.402;9.796;2023-03-17T11:47:28;100296.03;;;22.53;26.69
20368;BME280;10343;52.402;9.796;2023-03-17T11:50:02;100279.84;;;23.31;25.57
20368;BME280;10343;52.402;9.796;2023-03-17T11:52:37;100280.03;;;23.51;25.68
20368;BME280;10343;52.402;9.796;2023-03-17T11:55:15;100287.22;;;21.93;26.87
20368;BME280;10343;52.402;9.796;2023-03-17T11:57:52;100291.28;;;21.99;27.17
20368;BME280;10343;52.402;9.796;2023-03-17T12:00:25;100284.66;;;22.14;26.90
20368;BME280;10343;52.402;9.796;2023-03-17T12:03:00;100284.50;;;22.51;26.72
20368;BME280;10343;52.402;9.796;2023-03-17T12:05:33;100284.22;;;23.76;25.75
20368;BME280;10343;52.402;9.796;2023-03-17T12:08:07;100287.84;;;23.65;25.63
20368;BME280;10343;52.402;9.796;2023-03-17T12:10:42;100292.50;;;23.42;25.78
20368;BME280;10343;52.402;9.796;2023-03-17T12:13:15;100301.84;;;23.38;25.66
20368;BME280;10343;52.402;9.796;2023-03-17T12:15:49;100295.22;;;22.17;27.01
20368;BME280;10343;52.402;9.796;2023-03-17T12:18:23;100298.47;;;21.98;27.49
20368;BME280;10343;52.402;9.796;2023-03-17T12:20:56;100294.66;;;22.93;26.79
20368;BME280;10343;52.402;9.796;2023-03-17T12:23:33;100288.47;;;23.25;26.82
20368;BME280;10343;52.402;9.796;2023-03-17T12:26:06;100288.41;;;22.59;27.15
20368;BME280;10343;52.402;9.796;2023-03-17T12:28:41;100288.34;;;22.13;27.33
20368;BME280;10343;52.402;9.796;2023-03-17T12:31:14;100280.75;;;23.09;27.04
20368;BME280;10343;52.402;9.796;2023-03-17T12:33:49;100279.94;;;23.73;25.92
20368;BME280;10343;52.402;9.796;2023-03-17T12:36:21;100283.53;;;23.30;26.42
20368;BME280;10343;52.402;9.796;2023-03-17T12:38:51;100279.78;;;23.21;26.77
20368;BME280;10343;52.402;9.796;2023-03-17T12:41:31;100280.00;;;23.30;26.68
20368;BME280;10343;52.402;9.796;2023-03-17T12:44:06;100281.50;;;22.20;27.84
20368;BME280;10343;52.402;9.796;2023-03-17T12:47:15;100275.41;;;24.16;25.96
20368;BME280;10343;52.402;9.796;2023-03-17T12:50:08;100266.31;;;24.89;25.03
20368;BME280;10343;52.402;9.796;2023-03-17T12:53:13;100260.97;;;25.08;24.73
20368;BME280;10343;52.402;9.796;2023-03-17T12:55:50;100263.84;;;25.17;24.84
20368;BME280;10343;52.402;9.796;2023-03-17T12:58:29;100276.84;;;23.02;27.15
20368;BME280;10343;52.402;9.796;2023-03-17T13:01:10;100275.09;;;23.56;26.33
20368;BME280;10343;52.402;9.796;2023-03-17T13:03:54;100272.66;;;24.37;25.40
20368;BME280;10343;52.402;9.796;2023-03-17T13:06:24;100276.41;;;24.46;25.83
20368;BME280;10343;52.402;9.796;2023-03-17T13:08:52;100265.50;;;24.98;24.83
20368;BME280;10343;52.402;9.796;2023-03-17T13:11:26;100265.00;;;25.53;24.35
20368;BME280;10343;52.402;9.796;2023-03-17T13:14:06;100265.28;;;24.18;25.87